createdAt,value
2022-12-29T06:17:32.574Z,24.76
2022-12-29T06:27:32.446Z,21.70
2022-12-29T06:37:32.541Z,21.58
2022-12-29T06:47:32.533Z,19.58
2022-12-29T06:57:32.705Z,16.44
2022-12-29T07:07:32.786Z,19.82
2022-12-29T07:17:32.632Z,24.55
2022-12-29T07:27:32.734Z,25.72
2022-12-29T07:37:32.683Z,28.33
2022-12-29T07:47:32.591Z,29.56
2022-12-29T07:57:33.627Z,23.18
2022-12-29T08:07:32.680Z,20.05
2022-12-29T08:17:32.715Z,10.97
2022-12-29T08:27:32.776Z,10.03
2022-12-29T08:37:32.942Z,11.03
2022-12-29T08:47:32.958Z,14.33
2022-12-29T08:57:32.932Z,22.17
2022-12-29T09:07:33.105Z,17.67
2022-12-29T09:17:32.990Z,13.63
2022-12-29T09:27:32.978Z,12.62
2022-12-29T09:37:33.274Z,13.77
2022-12-29T09:47:33.093Z,13.64
2022-12-29T09:57:32.941Z,16.15
2022-12-29T10:07:33.328Z,17.38
2022-12-29T10:17:32.964Z,22.37
2022-12-29T10:27:33.049Z,23.43
2022-12-29T10:37:34.176Z,20.49
2022-12-29T10:47:32.978Z,20.32
2022-12-29T10:57:33.211Z,21.25
2022-12-29T11:07:33.357Z,3.63
2022-12-29T11:17:33.176Z,4.89
2022-12-29T11:27:33.320Z,27.78
2022-12-29T11:37:33.063Z,23.56
2022-12-29T11:47:33.277Z,13.74
2022-12-29T11:57:33.236Z,0.00
2022-12-29T12:07:33.218Z,0.00
2022-12-29T12:17:33.288Z,0.00
2022-12-29T12:27:33.232Z,0.00
2022-12-29T12:37:33.149Z,0.00
2022-12-29T12:47:33.126Z,18.60
2022-12-29T12:57:33.204Z,28.64
2022-12-29T13:07:33.177Z,24.54
2022-12-29T13:17:33.243Z,24.79
2022-12-29T13:27:37.351Z,23.33
2022-12-29T13:37:33.284Z,24.16
2022-12-29T13:47:33.554Z,22.92
2022-12-29T13:57:33.366Z,23.38
2022-12-29T14:07:33.196Z,29.17
2022-12-29T14:17:33.349Z,25.72
2022-12-29T14:27:33.210Z,29.96
2022-12-29T14:37:34.314Z,24.20
2022-12-29T14:47:34.363Z,28.85
2022-12-29T14:57:33.295Z,26.13
2022-12-29T15:07:33.398Z,21.21
2022-12-29T15:17:33.222Z,19.34
2022-12-29T15:27:33.244Z,22.65
2022-12-29T15:37:33.353Z,33.79
2022-12-29T15:47:33.210Z,24.19
2022-12-29T15:57:33.290Z,21.78
2022-12-29T16:07:39.119Z,18.06
2022-12-29T16:17:33.312Z,17.08
2022-12-29T16:27:33.492Z,20.19
2022-12-29T16:37:33.285Z,17.37
2022-12-29T16:47:33.255Z,16.96
2022-12-29T16:57:33.303Z,16.66
2022-12-29T17:07:33.227Z,13.21
2022-12-29T17:17:33.533Z,10.74
2022-12-29T17:27:33.353Z,13.37
2022-12-29T17:37:33.369Z,15.11
2022-12-29T17:47:33.236Z,14.88
2022-12-29T17:57:33.308Z,19.15
2022-12-29T18:07:36.044Z,16.59
2022-12-29T18:17:33.314Z,13.39
2022-12-29T18:27:33.233Z,13.25
2022-12-29T18:37:33.281Z,13.17
2022-12-29T18:47:33.462Z,18.61
2022-12-29T18:57:33.234Z,17.39
2022-12-29T19:07:33.286Z,14.27
2022-12-29T19:17:33.302Z,12.48
